St. Michaels, AZ

10:12 PM MDT on August 29, 2016 (GMT -0600)
Window Rock | | Change Station

Elev 6742 ft 35.66 °N, 109.06 °W | Updated 19 minutes ago

Partly Cloudy
Partly Cloudy
68 °F
Feels Like 68 °F
N
7
Wind Variable Wind from ENE

Today
High -- | Low -- °F
--% Chance of Precip.
Yesterday
High -- | Low -- °F
Precip. -- in
Pressure 30.00 in
Visibility 10.0 miles
Clouds Few 11000 ft
Dew Point 39 °F
Humidity 35%
Rainfall 0.00 in
Snow Depth Not available.
6:46 AM 7:46 PM
Waning Crescent, 5% visible
METAR KRQE 300353Z AUTO 06006KT 10SM FEW110 20/04 A3033 RMK AO2 SLP157 T02000039 TSNO
Pressure 30.00 in
Visibility 10.0 miles
Clouds Few 11000 ft
Dew Point 39 °F
Humidity 35%
Rainfall 0.00 in
Snow Depth Not available.
6:46 AM 7:46 PM
Waning Crescent, 5% visible
METAR KRQE 300353Z AUTO 06006KT 10SM FEW110 20/04 A3033 RMK AO2 SLP157 T02000039 TSNO

10-Day Weather Forecast

Almanac

Astronomy

Aug. 29, 2016 Rise Set
Actual Time
Civil Twilight
Nautical Twilight
Astronomical Twilight
Moon
Length of Visible Light
Length of Day
Tomorrow will be .
, % of the Moon is Illuminated

Today's Extremes

State Highs State Lows

Community

WunderPhotos

Upload Photos

1,935,785 photos uploaded!

WunderBlog® & News

Nearby

Air Quality

  Air Quality AQ Index Pollutant
Not available.

Snow Depth

Station Depth Elevation

Earthquake Activity

City Distance Mag. Time & Date
Minimum magnitude displayed is 2.5.

Coastal Water Temperatures

Place Temperature

Stations

Nearby Weather Stations

Station Location Temp. Windchill Dew Point Humidity Wind Precip. Elev Updated Type
                   

Watches & Warnings

There are currently no watches in effect.